createdAt,value
2022-12-31T00:00:26.257Z,100011.00
2022-12-31T00:05:49.540Z,99978.40
2022-12-31T00:10:52.734Z,99968.00
2022-12-31T00:15:55.864Z,99945.80
2022-12-31T00:20:59.048Z,99947.60
2022-12-31T00:26:09.930Z,99940.20
2022-12-31T00:31:23.260Z,99936.00
2022-12-31T00:36:37.334Z,99938.40
2022-12-31T00:41:40.967Z,99935.20
2022-12-31T00:51:46.979Z,99898.00
2022-12-31T00:56:50.279Z,99881.60
2022-12-31T01:01:53.363Z,99889.00
2022-12-31T01:06:56.612Z,99887.20
2022-12-31T01:11:59.710Z,99890.40
2022-12-31T01:17:02.807Z,99887.00
2022-12-31T01:22:05.924Z,99869.60
2022-12-31T01:27:08.935Z,99864.20
2022-12-31T01:32:12.131Z,99869.20
2022-12-31T01:37:15.147Z,99870.80
2022-12-31T01:42:18.238Z,99862.20
2022-12-31T01:47:38.034Z,99841.40
2022-12-31T01:52:47.652Z,99831.40
2022-12-31T01:57:59.346Z,99827.20
2022-12-31T02:03:05.792Z,99835.80
2022-12-31T02:08:10.402Z,99839.80
2022-12-31T02:13:15.498Z,99840.20
2022-12-31T02:18:45.226Z,99862.60
2022-12-31T02:24:28.787Z,99853.60
2022-12-31T02:29:56.758Z,99847.80
2022-12-31T02:35:21.156Z,99829.60
2022-12-31T02:40:25.491Z,99831.00
2022-12-31T02:45:41.816Z,99826.40
2022-12-31T02:51:12.083Z,99826.60
2022-12-31T02:56:41.513Z,99821.80
2022-12-31T03:02:12.558Z,99831.40
2022-12-31T03:07:23.765Z,99818.40
2022-12-31T03:12:50.303Z,99804.20
2022-12-31T03:18:01.298Z,99803.00
2022-12-31T03:23:08.481Z,99777.80
2022-12-31T03:28:15.990Z,99785.20
2022-12-31T03:33:21.512Z,99798.40
2022-12-31T03:38:24.904Z,99799.00
2022-12-31T03:43:28.087Z,99789.80
2022-12-31T03:48:31.088Z,99778.80
2022-12-31T03:53:35.925Z,99776.80
2022-12-31T03:58:38.928Z,99774.00
2022-12-31T04:03:41.933Z,99777.20
2022-12-31T04:08:45.038Z,99770.40
2022-12-31T04:13:48.165Z,99777.60
2022-12-31T04:18:51.358Z,99789.20
2022-12-31T04:23:54.460Z,99781.80
2022-12-31T04:28:57.666Z,99763.80
2022-12-31T04:34:00.699Z,99762.00
2022-12-31T04:39:03.914Z,99767.60
2022-12-31T04:44:06.984Z,99780.40
2022-12-31T04:49:10.841Z,99787.40
2022-12-31T04:54:14.022Z,99788.60
2022-12-31T04:59:17.131Z,99787.20
2022-12-31T05:04:20.233Z,99775.60
2022-12-31T05:09:24.365Z,99762.00
2022-12-31T05:14:27.412Z,99769.80
2022-12-31T05:19:30.478Z,99773.40
2022-12-31T05:24:33.575Z,99784.60
2022-12-31T05:29:36.682Z,99792.60
2022-12-31T05:34:39.705Z,99795.20
2022-12-31T05:39:42.892Z,99801.20
2022-12-31T05:44:46.220Z,99794.60
2022-12-31T05:49:49.516Z,99796.20
2022-12-31T05:54:52.628Z,99800.00
2022-12-31T05:59:55.783Z,99802.00
2022-12-31T06:04:59.143Z,99803.40
2022-12-31T06:10:02.264Z,99805.40
2022-12-31T06:15:06.765Z,99810.00
2022-12-31T06:20:13.184Z,99814.80
2022-12-31T06:25:16.693Z,99804.40
2022-12-31T06:30:19.936Z,99799.40
2022-12-31T06:35:23.426Z,99798.60
2022-12-31T06:40:26.517Z,99794.20
2022-12-31T06:45:29.535Z,99798.80
2022-12-31T06:50:33.241Z,99812.00
2022-12-31T06:55:37.075Z,99834.80
2022-12-31T07:01:01.262Z,99828.40
2022-12-31T07:06:16.411Z,99830.20
2022-12-31T07:11:30.587Z,99846.20
2022-12-31T07:16:40.043Z,99848.40
2022-12-31T07:21:44.750Z,99846.40
2022-12-31T07:27:25.206Z,99850.80
2022-12-31T07:32:53.312Z,99857.20
2022-12-31T07:38:08.713Z,99854.40
2022-12-31T07:43:59.206Z,99856.20
2022-12-31T07:49:03.064Z,99863.60
2022-12-31T07:54:11.821Z,99878.80
2022-12-31T07:59:34.961Z,99877.60
2022-12-31T08:05:02.531Z,99878.80
2022-12-31T08:10:18.832Z,99881.40
2022-12-31T08:15:28.473Z,99883.20
2022-12-31T08:20:45.517Z,99894.20
2022-12-31T08:26:09.139Z,99885.60
2022-12-31T08:31:22.621Z,99883.20
2022-12-31T08:36:31.718Z,99888.00
2022-12-31T08:41:46.196Z,99900.80
2022-12-31T08:47:27.833Z,99903.80
2022-12-31T08:52:32.130Z,99910.60
2022-12-31T08:57:50.699Z,99915.00
2022-12-31T09:03:02.931Z,99901.80
2022-12-31T09:08:44.651Z,99904.00
2022-12-31T09:14:24.919Z,99900.20
2022-12-31T09:19:28.838Z,99905.60
2022-12-31T09:24:32.965Z,99895.00
2022-12-31T09:29:59.327Z,99885.20
2022-12-31T09:35:39.517Z,99887.20
2022-12-31T09:41:16.724Z,99882.20
2022-12-31T09:46:47.763Z,99873.60
2022-12-31T09:52:09.610Z,99851.60
2022-12-31T09:57:35.048Z,99854.60
2022-12-31T10:03:25.845Z,99859.00
2022-12-31T10:09:11.765Z,99845.80
2022-12-31T10:14:38.902Z,99845.20
2022-12-31T10:20:15.336Z,99823.00
2022-12-31T10:25:50.588Z,99817.60
2022-12-31T10:31:14.629Z,99790.40
2022-12-31T10:36:31.419Z,99786.20
2022-12-31T10:42:14.967Z,99789.00
2022-12-31T10:47:52.221Z,99774.40
2022-12-31T10:53:32.443Z,99775.40
2022-12-31T10:59:13.949Z,99766.40
2022-12-31T11:05:01.116Z,99768.60
2022-12-31T11:10:25.700Z,99752.00
2022-12-31T11:16:03.255Z,99744.60
2022-12-31T11:21:40.923Z,99738.00
2022-12-31T11:26:59.353Z,99726.60
2022-12-31T11:32:02.413Z,99711.20
2022-12-31T11:37:11.386Z,99694.00
2022-12-31T11:42:41.715Z,99688.60
2022-12-31T11:48:31.401Z,99688.20
2022-12-31T11:54:06.747Z,99679.40
2022-12-31T11:59:19.235Z,99670.00
2022-12-31T12:04:23.229Z,99677.60
2022-12-31T12:09:31.321Z,99671.40
2022-12-31T12:14:41.812Z,99631.00
2022-12-31T12:19:53.829Z,99650.40
2022-12-31T12:25:08.104Z,99655.20
2022-12-31T12:30:26.223Z,99652.20
2022-12-31T12:35:35.797Z,99634.80
2022-12-31T12:40:40.039Z,99631.40
2022-12-31T12:45:51.728Z,99619.40
2022-12-31T12:50:55.688Z,99624.20
2022-12-31T12:56:16.595Z,99627.40
2022-12-31T13:01:48.178Z,99621.20
2022-12-31T13:07:25.481Z,99611.00
2022-12-31T13:18:31.497Z,99597.00
2022-12-31T13:23:54.874Z,99612.80
2022-12-31T13:29:01.513Z,99590.20
2022-12-31T13:34:30.474Z,99592.80
2022-12-31T13:39:41.287Z,99604.00
2022-12-31T13:45:04.718Z,99625.60
2022-12-31T13:50:33.970Z,99643.20
2022-12-31T13:55:59.413Z,99620.40
2022-12-31T14:01:34.011Z,99627.00
2022-12-31T14:07:07.570Z,99630.80
2022-12-31T14:12:26.227Z,99640.00
2022-12-31T14:17:47.870Z,99634.40
2022-12-31T14:23:24.982Z,99633.60
2022-12-31T14:28:47.004Z,99637.80
2022-12-31T14:34:19.320Z,99645.40
2022-12-31T14:39:52.853Z,99656.00
2022-12-31T14:45:38.817Z,99643.40
2022-12-31T14:50:46.731Z,99617.80
2022-12-31T14:56:07.469Z,99614.40
2022-12-31T15:01:17.815Z,99627.00
2022-12-31T15:06:24.089Z,99637.00
2022-12-31T15:11:52.030Z,99634.80
2022-12-31T15:17:46.952Z,99641.00
2022-12-31T15:22:53.101Z,99627.80
2022-12-31T15:28:03.574Z,99629.20
2022-12-31T15:33:38.153Z,99646.00
2022-12-31T15:38:42.794Z,99639.40
2022-12-31T15:43:54.263Z,99646.20
2022-12-31T15:49:17.034Z,99657.60
2022-12-31T15:54:31.538Z,99659.40
2022-12-31T15:59:34.790Z,99653.20
2022-12-31T16:04:44.542Z,99652.80
2022-12-31T16:09:57.836Z,99651.40
2022-12-31T16:15:02.593Z,99649.40
2022-12-31T16:20:27.227Z,99653.00
2022-12-31T16:25:33.831Z,99662.00
2022-12-31T16:30:37.415Z,99661.80
2022-12-31T16:35:40.857Z,99648.00
2022-12-31T16:41:02.313Z,99639.20
2022-12-31T16:46:17.477Z,99661.00
2022-12-31T16:51:27.643Z,99661.80
2022-12-31T16:56:38.188Z,99663.40
2022-12-31T17:01:42.859Z,99669.40
2022-12-31T17:06:47.850Z,99671.60
2022-12-31T17:12:10.261Z,99680.20
2022-12-31T17:17:27.729Z,99677.60
2022-12-31T17:22:37.181Z,99687.80
2022-12-31T17:27:40.667Z,99690.60
2022-12-31T17:32:45.723Z,99690.80
2022-12-31T17:37:48.959Z,99694.20
2022-12-31T17:42:52.240Z,99690.80
2022-12-31T17:47:59.942Z,99707.20
2022-12-31T17:53:12.348Z,99704.40
2022-12-31T17:58:39.032Z,99711.40
2022-12-31T18:03:42.362Z,99706.20
2022-12-31T18:08:45.562Z,99705.00
2022-12-31T18:13:49.485Z,99707.20
2022-12-31T18:18:52.793Z,99720.20
2022-12-31T18:29:02.905Z,99729.80
2022-12-31T18:34:06.675Z,99736.20
2022-12-31T18:39:10.337Z,99716.20
2022-12-31T18:44:16.313Z,99711.40
2022-12-31T18:49:19.412Z,99705.80
2022-12-31T18:54:22.535Z,99713.40
2022-12-31T18:59:25.733Z,99714.00
2022-12-31T19:04:28.835Z,99725.60
2022-12-31T19:09:54.587Z,99726.80
2022-12-31T19:14:57.879Z,99729.80
2022-12-31T19:20:04.590Z,99741.80
2022-12-31T19:25:27.373Z,99740.20
2022-12-31T19:30:34.233Z,99748.20
2022-12-31T19:35:38.878Z,99744.60
2022-12-31T19:40:41.988Z,99748.80
2022-12-31T19:45:45.827Z,99749.40
2022-12-31T19:50:53.301Z,99742.40
2022-12-31T19:55:56.429Z,99746.40
2022-12-31T20:01:03.322Z,99743.20
2022-12-31T20:06:10.367Z,99735.00
2022-12-31T20:11:20.386Z,99722.60
2022-12-31T20:16:27.123Z,99739.80
2022-12-31T20:21:30.385Z,99734.00
2022-12-31T20:26:33.694Z,99740.20
2022-12-31T20:31:37.232Z,99738.20
2022-12-31T20:36:41.166Z,99727.20
2022-12-31T20:41:44.257Z,99726.40
2022-12-31T20:46:47.372Z,99723.00
2022-12-31T20:51:52.352Z,99716.20
2022-12-31T20:56:55.651Z,99712.40
2022-12-31T21:07:22.303Z,99704.20
2022-12-31T21:12:43.841Z,99706.20
2022-12-31T21:17:47.692Z,99697.80
2022-12-31T21:22:50.787Z,99688.40
2022-12-31T21:27:53.904Z,99689.20
2022-12-31T21:32:57.078Z,99700.80
2022-12-31T21:38:02.520Z,99704.20
2022-12-31T21:43:05.647Z,99712.60
2022-12-31T21:48:25.173Z,99708.20
2022-12-31T21:53:36.349Z,99695.80
2022-12-31T21:58:44.843Z,99676.00
2022-12-31T22:03:48.037Z,99688.00
2022-12-31T22:08:55.427Z,99694.60
2022-12-31T22:13:58.698Z,99699.80
2022-12-31T22:19:01.903Z,99706.80
2022-12-31T22:24:06.108Z,99712.60
2022-12-31T22:29:09.364Z,99714.00
2022-12-31T22:34:12.446Z,99725.80
2022-12-31T22:39:43.628Z,99725.20
2022-12-31T22:44:39.772Z,99713.00
2022-12-31T22:49:42.866Z,99704.60
2022-12-31T22:54:45.976Z,99695.60
2022-12-31T22:59:49.073Z,99690.20
2022-12-31T23:04:52.182Z,99692.20
2022-12-31T23:10:14.027Z,99705.20
2022-12-31T23:15:36.192Z,99707.40
2022-12-31T23:20:58.458Z,99717.20
2022-12-31T23:26:02.575Z,99721.60
2022-12-31T23:31:06.872Z,99703.80
2022-12-31T23:36:10.310Z,99708.80
2022-12-31T23:41:19.877Z,99691.40
2022-12-31T23:46:23.090Z,99704.40
2022-12-31T23:51:26.301Z,99693.00
2022-12-31T23:56:31.041Z,99700.00
